sensor_id;sensor_type;location;lat;lon;timestamp;P1;durP1;ratioP1;P2;durP2;ratioP2
48534;SDS011;34323;52.022;5.686;2022-08-21T00:01:54;5.32;;;2.65;;
48534;SDS011;34323;52.022;5.686;2022-08-21T00:04:20;6.03;;;2.67;;
48534;SDS011;34323;52.022;5.686;2022-08-21T00:06:46;5.68;;;2.70;;
48534;SDS011;34323;52.022;5.686;2022-08-21T00:09:11;5.95;;;2.50;;
48534;SDS011;34323;52.022;5.686;2022-08-21T00:11:37;6.72;;;2.95;;
48534;SDS011;34323;52.022;5.686;2022-08-21T00:14:04;3.38;;;2.63;;
48534;SDS011;34323;52.022;5.686;2022-08-21T00:16:31;6.30;;;3.05;;
48534;SDS011;34323;52.022;5.686;2022-08-21T00:18:57;7.43;;;2.72;;
48534;SDS011;34323;52.022;5.686;2022-08-21T00:21:23;5.65;;;2.65;;
48534;SDS011;34323;52.022;5.686;2022-08-21T00:23:50;5.72;;;2.55;;
48534;SDS011;34323;52.022;5.686;2022-08-21T00:26:15;9.15;;;2.20;;
48534;SDS011;34323;52.022;5.686;2022-08-21T00:28:41;9.40;;;2.80;;
48534;SDS011;34323;52.022;5.686;2022-08-21T00:31:07;5.45;;;2.67;;
48534;SDS011;34323;52.022;5.686;2022-08-21T00:33:32;4.95;;;2.90;;
48534;SDS011;34323;52.022;5.686;2022-08-21T00:35:58;5.68;;;2.80;;
48534;SDS011;34323;52.022;5.686;2022-08-21T00:38:25;6.20;;;3.15;;
48534;SDS011;34323;52.022;5.686;2022-08-21T00:40:52;6.78;;;3.05;;
48534;SDS011;34323;52.022;5.686;2022-08-21T00:43:27;5.50;;;3.17;;
48534;SDS011;34323;52.022;5.686;2022-08-21T00:45:55;6.30;;;3.05;;
48534;SDS011;34323;52.022;5.686;2022-08-21T00:48:22;4.15;;;2.95;;
48534;SDS011;34323;52.022;5.686;2022-08-21T00:50:53;6.95;;;2.83;;
48534;SDS011;34323;52.022;5.686;2022-08-21T00:53:26;5.63;;;2.92;;
48534;SDS011;34323;52.022;5.686;2022-08-21T00:55:54;7.80;;;3.35;;
48534;SDS011;34323;52.022;5.686;2022-08-21T00:58:20;7.88;;;3.47;;
48534;SDS011;34323;52.022;5.686;2022-08-21T01:00:47;10.30;;;3.22;;
48534;SDS011;34323;52.022;5.686;2022-08-21T01:03:16;8.07;;;3.00;;
48534;SDS011;34323;52.022;5.686;2022-08-21T01:05:46;5.35;;;2.65;;
48534;SDS011;34323;52.022;5.686;2022-08-21T01:08:13;10.52;;;3.63;;
48534;SDS011;34323;52.022;5.686;2022-08-21T01:10:42;6.85;;;3.25;;
48534;SDS011;34323;52.022;5.686;2022-08-21T01:13:09;5.97;;;3.13;;
48534;SDS011;34323;52.022;5.686;2022-08-21T01:15:37;7.93;;;3.80;;
48534;SDS011;34323;52.022;5.686;2022-08-21T01:18:07;6.68;;;3.75;;
48534;SDS011;34323;52.022;5.686;2022-08-21T01:20:34;6.65;;;3.45;;
48534;SDS011;34323;52.022;5.686;2022-08-21T01:23:01;7.32;;;3.35;;
48534;SDS011;34323;52.022;5.686;2022-08-21T01:25:29;8.00;;;3.28;;
48534;SDS011;34323;52.022;5.686;2022-08-21T01:27:55;6.90;;;3.60;;
48534;SDS011;34323;52.022;5.686;2022-08-21T01:30:23;9.00;;;3.90;;
48534;SDS011;34323;52.022;5.686;2022-08-21T01:32:51;8.10;;;3.97;;
48534;SDS011;34323;52.022;5.686;2022-08-21T01:35:17;5.75;;;3.67;;
48534;SDS011;34323;52.022;5.686;2022-08-21T01:37:44;5.65;;;3.60;;
48534;SDS011;34323;52.022;5.686;2022-08-21T01:40:10;6.00;;;3.83;;
48534;SDS011;34323;52.022;5.686;2022-08-21T01:42:37;11.40;;;4.10;;
48534;SDS011;34323;52.022;5.686;2022-08-21T01:45:04;7.05;;;3.95;;
48534;SDS011;34323;52.022;5.686;2022-08-21T01:47:31;12.55;;;4.18;;
48534;SDS011;34323;52.022;5.686;2022-08-21T01:49:57;6.40;;;3.75;;
48534;SDS011;34323;52.022;5.686;2022-08-21T01:52:23;8.82;;;3.60;;
48534;SDS011;34323;52.022;5.686;2022-08-21T01:54:48;13.80;;;3.60;;
48534;SDS011;34323;52.022;5.686;2022-08-21T01:57:14;7.47;;;3.92;;
48534;SDS011;34323;52.022;5.686;2022-08-21T01:59:40;8.75;;;4.13;;
48534;SDS011;34323;52.022;5.686;2022-08-21T02:02:06;8.80;;;4.07;;
48534;SDS011;34323;52.022;5.686;2022-08-21T02:04:32;7.93;;;4.00;;
48534;SDS011;34323;52.022;5.686;2022-08-21T02:07:01;8.48;;;4.18;;
48534;SDS011;34323;52.022;5.686;2022-08-21T02:09:26;6.85;;;3.78;;
48534;SDS011;34323;52.022;5.686;2022-08-21T02:11:53;8.75;;;3.70;;
48534;SDS011;34323;52.022;5.686;2022-08-21T02:14:19;6.25;;;3.72;;
48534;SDS011;34323;52.022;5.686;2022-08-21T02:16:45;6.70;;;3.72;;
48534;SDS011;34323;52.022;5.686;2022-08-21T02:19:12;6.68;;;4.60;;
48534;SDS011;34323;52.022;5.686;2022-08-21T02:21:40;8.48;;;3.80;;
48534;SDS011;34323;52.022;5.686;2022-08-21T02:24:06;4.05;;;3.30;;
48534;SDS011;34323;52.022;5.686;2022-08-21T02:26:33;8.73;;;4.13;;
48534;SDS011;34323;52.022;5.686;2022-08-21T02:28:58;8.77;;;5.20;;
48534;SDS011;34323;52.022;5.686;2022-08-21T02:31:24;7.13;;;4.25;;
48534;SDS011;34323;52.022;5.686;2022-08-21T02:33:50;7.68;;;4.03;;
48534;SDS011;34323;52.022;5.686;2022-08-21T02:36:16;7.32;;;4.28;;
48534;SDS011;34323;52.022;5.686;2022-08-21T02:38:42;6.18;;;4.40;;
48534;SDS011;34323;52.022;5.686;2022-08-21T02:41:10;7.93;;;3.90;;
48534;SDS011;34323;52.022;5.686;2022-08-21T02:43:41;9.13;;;4.18;;
48534;SDS011;34323;52.022;5.686;2022-08-21T02:46:07;6.90;;;4.05;;
48534;SDS011;34323;52.022;5.686;2022-08-21T02:48:35;8.15;;;4.10;;
48534;SDS011;34323;52.022;5.686;2022-08-21T02:51:06;7.70;;;4.72;;
48534;SDS011;34323;52.022;5.686;2022-08-21T02:53:37;6.85;;;4.38;;
48534;SDS011;34323;52.022;5.686;2022-08-21T02:56:04;10.05;;;4.25;;
48534;SDS011;34323;52.022;5.686;2022-08-21T02:58:37;8.55;;;4.80;;
48534;SDS011;34323;52.022;5.686;2022-08-21T03:01:08;6.90;;;3.70;;
48534;SDS011;34323;52.022;5.686;2022-08-21T03:03:35;11.35;;;5.10;;
48534;SDS011;34323;52.022;5.686;2022-08-21T03:06:06;8.57;;;4.47;;
48534;SDS011;34323;52.022;5.686;2022-08-21T03:08:33;8.35;;;4.40;;
48534;SDS011;34323;52.022;5.686;2022-08-21T03:10:59;9.75;;;4.18;;
48534;SDS011;34323;52.022;5.686;2022-08-21T03:13:26;6.45;;;4.00;;
48534;SDS011;34323;52.022;5.686;2022-08-21T03:15:52;8.43;;;4.40;;
48534;SDS011;34323;52.022;5.686;2022-08-21T03:18:18;9.10;;;4.22;;
48534;SDS011;34323;52.022;5.686;2022-08-21T03:20:45;8.57;;;4.10;;
48534;SDS011;34323;52.022;5.686;2022-08-21T03:23:11;8.98;;;4.63;;
48534;SDS011;34323;52.022;5.686;2022-08-21T03:25:38;7.22;;;4.00;;
48534;SDS011;34323;52.022;5.686;2022-08-21T03:28:04;9.35;;;4.28;;
48534;SDS011;34323;52.022;5.686;2022-08-21T03:30:31;7.22;;;3.85;;
48534;SDS011;34323;52.022;5.686;2022-08-21T03:32:57;7.07;;;3.92;;
48534;SDS011;34323;52.022;5.686;2022-08-21T03:35:24;6.43;;;3.75;;
48534;SDS011;34323;52.022;5.686;2022-08-21T03:37:51;6.85;;;4.30;;
48534;SDS011;34323;52.022;5.686;2022-08-21T03:40:17;9.32;;;4.15;;
48534;SDS011;34323;52.022;5.686;2022-08-21T03:42:43;7.95;;;4.03;;
48534;SDS011;34323;52.022;5.686;2022-08-21T03:45:12;11.18;;;4.00;;
48534;SDS011;34323;52.022;5.686;2022-08-21T03:47:49;7.47;;;4.80;;
48534;SDS011;34323;52.022;5.686;2022-08-21T03:50:27;8.15;;;4.30;;
48534;SDS011;34323;52.022;5.686;2022-08-21T03:52:55;9.25;;;4.22;;
48534;SDS011;34323;52.022;5.686;2022-08-21T03:55:21;8.43;;;4.63;;
48534;SDS011;34323;52.022;5.686;2022-08-21T03:57:47;16.20;;;4.90;;
48534;SDS011;34323;52.022;5.686;2022-08-21T04:00:13;9.05;;;4.25;;
48534;SDS011;34323;52.022;5.686;2022-08-21T04:02:39;7.22;;;4.68;;
48534;SDS011;34323;52.022;5.686;2022-08-21T04:05:05;9.48;;;3.80;;
48534;SDS011;34323;52.022;5.686;2022-08-21T04:07:32;6.22;;;4.22;;
48534;SDS011;34323;52.022;5.686;2022-08-21T04:09:58;6.30;;;4.18;;
48534;SDS011;34323;52.022;5.686;2022-08-21T04:12:24;6.28;;;4.57;;
48534;SDS011;34323;52.022;5.686;2022-08-21T04:14:49;8.25;;;4.55;;
48534;SDS011;34323;52.022;5.686;2022-08-21T04:17:16;6.80;;;3.90;;
48534;SDS011;34323;52.022;5.686;2022-08-21T04:19:42;6.18;;;3.33;;
48534;SDS011;34323;52.022;5.686;2022-08-21T04:22:08;7.15;;;3.90;;
48534;SDS011;34323;52.022;5.686;2022-08-21T04:24:33;7.93;;;3.80;;
48534;SDS011;34323;52.022;5.686;2022-08-21T04:26:59;7.15;;;4.18;;
48534;SDS011;34323;52.022;5.686;2022-08-21T04:29:25;6.70;;;4.43;;
48534;SDS011;34323;52.022;5.686;2022-08-21T04:31:51;7.93;;;4.45;;
48534;SDS011;34323;52.022;5.686;2022-08-21T04:34:17;8.65;;;4.55;;
48534;SDS011;34323;52.022;5.686;2022-08-21T04:36:43;7.55;;;4.38;;
48534;SDS011;34323;52.022;5.686;2022-08-21T04:39:08;11.90;;;5.32;;
48534;SDS011;34323;52.022;5.686;2022-08-21T04:41:34;9.07;;;5.15;;
48534;SDS011;34323;52.022;5.686;2022-08-21T04:44:00;6.93;;;5.10;;
48534;SDS011;34323;52.022;5.686;2022-08-21T04:46:27;10.63;;;6.00;;
48534;SDS011;34323;52.022;5.686;2022-08-21T04:48:53;6.70;;;4.63;;
48534;SDS011;34323;52.022;5.686;2022-08-21T04:51:24;7.90;;;5.15;;
48534;SDS011;34323;52.022;5.686;2022-08-21T04:54:00;8.10;;;4.80;;
48534;SDS011;34323;52.022;5.686;2022-08-21T04:56:48;7.05;;;4.82;;
48534;SDS011;34323;52.022;5.686;2022-08-21T04:59:22;7.25;;;4.82;;
48534;SDS011;34323;52.022;5.686;2022-08-21T05:04:17;11.98;;;5.60;;
48534;SDS011;34323;52.022;5.686;2022-08-21T05:06:46;6.60;;;4.80;;
48534;SDS011;34323;52.022;5.686;2022-08-21T05:09:14;9.50;;;5.13;;
48534;SDS011;34323;52.022;5.686;2022-08-21T05:11:44;9.15;;;4.88;;
48534;SDS011;34323;52.022;5.686;2022-08-21T05:14:10;8.25;;;4.97;;
48534;SDS011;34323;52.022;5.686;2022-08-21T05:16:36;9.25;;;5.22;;
48534;SDS011;34323;52.022;5.686;2022-08-21T05:19:02;6.97;;;5.35;;
48534;SDS011;34323;52.022;5.686;2022-08-21T05:21:29;7.13;;;5.38;;
48534;SDS011;34323;52.022;5.686;2022-08-21T05:23:55;9.75;;;4.95;;
48534;SDS011;34323;52.022;5.686;2022-08-21T05:26:20;13.73;;;5.22;;
48534;SDS011;34323;52.022;5.686;2022-08-21T05:28:46;9.32;;;5.28;;
48534;SDS011;34323;52.022;5.686;2022-08-21T05:31:11;7.97;;;5.53;;
48534;SDS011;34323;52.022;5.686;2022-08-21T05:33:37;9.30;;;5.40;;
48534;SDS011;34323;52.022;5.686;2022-08-21T05:36:02;10.82;;;5.43;;
48534;SDS011;34323;52.022;5.686;2022-08-21T05:38:28;11.30;;;6.15;;
48534;SDS011;34323;52.022;5.686;2022-08-21T05:40:54;10.32;;;5.80;;
48534;SDS011;34323;52.022;5.686;2022-08-21T05:43:20;8.27;;;5.70;;
48534;SDS011;34323;52.022;5.686;2022-08-21T05:45:46;10.57;;;6.28;;
48534;SDS011;34323;52.022;5.686;2022-08-21T05:48:13;9.40;;;5.95;;
48534;SDS011;34323;52.022;5.686;2022-08-21T05:50:41;7.25;;;5.70;;
48534;SDS011;34323;52.022;5.686;2022-08-21T05:53:07;7.32;;;5.50;;
48534;SDS011;34323;52.022;5.686;2022-08-21T05:55:35;8.18;;;4.90;;
48534;SDS011;34323;52.022;5.686;2022-08-21T05:58:01;7.20;;;5.25;;
48534;SDS011;34323;52.022;5.686;2022-08-21T06:00:28;7.63;;;5.63;;
48534;SDS011;34323;52.022;5.686;2022-08-21T06:02:53;12.73;;;5.97;;
48534;SDS011;34323;52.022;5.686;2022-08-21T06:05:19;11.48;;;6.10;;
48534;SDS011;34323;52.022;5.686;2022-08-21T06:07:45;7.55;;;5.43;;
48534;SDS011;34323;52.022;5.686;2022-08-21T06:10:10;11.60;;;6.10;;
48534;SDS011;34323;52.022;5.686;2022-08-21T06:12:36;11.43;;;7.28;;
48534;SDS011;34323;52.022;5.686;2022-08-21T06:15:01;13.93;;;8.88;;
48534;SDS011;34323;52.022;5.686;2022-08-21T06:17:27;19.05;;;9.80;;
48534;SDS011;34323;52.022;5.686;2022-08-21T06:19:53;16.40;;;10.25;;
48534;SDS011;34323;52.022;5.686;2022-08-21T06:22:19;18.70;;;10.10;;
48534;SDS011;34323;52.022;5.686;2022-08-21T06:24:45;18.02;;;11.68;;
48534;SDS011;34323;52.022;5.686;2022-08-21T06:27:11;19.50;;;10.13;;
48534;SDS011;34323;52.022;5.686;2022-08-21T06:29:37;14.32;;;9.43;;
48534;SDS011;34323;52.022;5.686;2022-08-21T06:32:03;16.05;;;9.73;;
48534;SDS011;34323;52.022;5.686;2022-08-21T06:34:29;18.92;;;10.15;;
48534;SDS011;34323;52.022;5.686;2022-08-21T06:36:55;19.90;;;10.00;;
48534;SDS011;34323;52.022;5.686;2022-08-21T06:39:21;21.05;;;10.10;;
48534;SDS011;34323;52.022;5.686;2022-08-21T06:41:46;24.00;;;9.90;;
48534;SDS011;34323;52.022;5.686;2022-08-21T06:44:15;19.20;;;9.60;;
48534;SDS011;34323;52.022;5.686;2022-08-21T06:46:41;19.45;;;9.93;;
48534;SDS011;34323;52.022;5.686;2022-08-21T06:49:07;18.77;;;9.27;;
48534;SDS011;34323;52.022;5.686;2022-08-21T06:51:32;22.77;;;8.52;;
48534;SDS011;34323;52.022;5.686;2022-08-21T06:53:58;23.75;;;9.02;;
48534;SDS011;34323;52.022;5.686;2022-08-21T06:56:24;15.50;;;8.50;;
48534;SDS011;34323;52.022;5.686;2022-08-21T06:58:49;22.73;;;8.95;;
48534;SDS011;34323;52.022;5.686;2022-08-21T07:01:15;19.65;;;8.85;;
48534;SDS011;34323;52.022;5.686;2022-08-21T07:03:41;17.40;;;8.35;;
48534;SDS011;34323;52.022;5.686;2022-08-21T07:06:09;29.60;;;8.65;;
48534;SDS011;34323;52.022;5.686;2022-08-21T07:08:35;21.48;;;8.13;;
48534;SDS011;34323;52.022;5.686;2022-08-21T07:11:03;19.83;;;8.25;;
48534;SDS011;34323;52.022;5.686;2022-08-21T07:13:33;17.73;;;7.60;;
48534;SDS011;34323;52.022;5.686;2022-08-21T07:15:59;18.85;;;7.07;;
48534;SDS011;34323;52.022;5.686;2022-08-21T07:18:25;18.05;;;7.75;;
48534;SDS011;34323;52.022;5.686;2022-08-21T07:20:50;16.48;;;8.25;;
48534;SDS011;34323;52.022;5.686;2022-08-21T07:23:22;22.10;;;8.77;;
48534;SDS011;34323;52.022;5.686;2022-08-21T07:25:51;29.80;;;8.05;;
48534;SDS011;34323;52.022;5.686;2022-08-21T07:28:16;24.00;;;8.90;;
48534;SDS011;34323;52.022;5.686;2022-08-21T07:30:42;19.58;;;8.07;;
48534;SDS011;34323;52.022;5.686;2022-08-21T07:33:08;18.45;;;7.82;;
48534;SDS011;34323;52.022;5.686;2022-08-21T07:35:34;21.80;;;8.57;;
48534;SDS011;34323;52.022;5.686;2022-08-21T07:37:59;25.90;;;8.15;;
48534;SDS011;34323;52.022;5.686;2022-08-21T07:40:25;17.17;;;7.68;;
48534;SDS011;34323;52.022;5.686;2022-08-21T07:42:50;16.40;;;9.30;;
48534;SDS011;34323;52.022;5.686;2022-08-21T07:45:16;20.40;;;8.00;;
48534;SDS011;34323;52.022;5.686;2022-08-21T07:47:46;23.38;;;8.82;;
48534;SDS011;34323;52.022;5.686;2022-08-21T07:50:13;25.55;;;10.82;;
48534;SDS011;34323;52.022;5.686;2022-08-21T07:52:40;25.88;;;7.97;;
48534;SDS011;34323;52.022;5.686;2022-08-21T07:55:08;33.03;;;7.30;;
48534;SDS011;34323;52.022;5.686;2022-08-21T07:57:38;22.95;;;8.50;;
48534;SDS011;34323;52.022;5.686;2022-08-21T08:00:06;24.30;;;8.07;;
48534;SDS011;34323;52.022;5.686;2022-08-21T08:02:33;22.40;;;7.70;;
48534;SDS011;34323;52.022;5.686;2022-08-21T08:05:03;29.25;;;8.32;;
48534;SDS011;34323;52.022;5.686;2022-08-21T08:07:30;16.33;;;7.05;;
48534;SDS011;34323;52.022;5.686;2022-08-21T08:09:56;17.80;;;7.97;;
48534;SDS011;34323;52.022;5.686;2022-08-21T08:12:23;24.83;;;7.93;;
48534;SDS011;34323;52.022;5.686;2022-08-21T08:14:54;26.52;;;7.40;;
48534;SDS011;34323;52.022;5.686;2022-08-21T08:17:23;19.42;;;6.53;;
48534;SDS011;34323;52.022;5.686;2022-08-21T08:19:49;14.30;;;6.60;;
48534;SDS011;34323;52.022;5.686;2022-08-21T08:22:16;19.00;;;6.53;;
48534;SDS011;34323;52.022;5.686;2022-08-21T08:24:48;20.67;;;6.68;;
48534;SDS011;34323;52.022;5.686;2022-08-21T08:27:14;28.98;;;7.00;;
48534;SDS011;34323;52.022;5.686;2022-08-21T08:29:41;17.17;;;6.38;;
48534;SDS011;34323;52.022;5.686;2022-08-21T08:32:07;24.15;;;7.00;;
48534;SDS011;34323;52.022;5.686;2022-08-21T08:34:33;17.90;;;6.53;;
48534;SDS011;34323;52.022;5.686;2022-08-21T08:37:00;20.73;;;6.20;;
48534;SDS011;34323;52.022;5.686;2022-08-21T08:39:26;15.43;;;5.47;;
48534;SDS011;34323;52.022;5.686;2022-08-21T08:41:58;16.95;;;5.78;;
48534;SDS011;34323;52.022;5.686;2022-08-21T08:44:40;15.52;;;6.20;;
48534;SDS011;34323;52.022;5.686;2022-08-21T08:47:06;14.43;;;5.10;;
48534;SDS011;34323;52.022;5.686;2022-08-21T08:49:36;17.52;;;5.22;;
48534;SDS011;34323;52.022;5.686;2022-08-21T08:55:00;16.40;;;4.10;;
48534;SDS011;34323;52.022;5.686;2022-08-21T08:57:35;20.65;;;5.10;;
48534;SDS011;34323;52.022;5.686;2022-08-21T09:00:07;16.15;;;4.72;;
48534;SDS011;34323;52.022;5.686;2022-08-21T09:02:38;13.73;;;5.00;;
48534;SDS011;34323;52.022;5.686;2022-08-21T09:05:05;13.73;;;4.78;;
48534;SDS011;34323;52.022;5.686;2022-08-21T09:10:20;15.57;;;4.50;;
48534;SDS011;34323;52.022;5.686;2022-08-21T09:18:21;17.33;;;4.03;;
48534;SDS011;34323;52.022;5.686;2022-08-21T09:21:07;15.40;;;3.90;;
48534;SDS011;34323;52.022;5.686;2022-08-21T09:23:43;17.52;;;4.45;;
48534;SDS011;34323;52.022;5.686;2022-08-21T09:26:40;15.95;;;4.15;;
48534;SDS011;34323;52.022;5.686;2022-08-21T09:29:17;16.02;;;3.42;;
48534;SDS011;34323;52.022;5.686;2022-08-21T09:31:47;23.95;;;3.75;;
48534;SDS011;34323;52.022;5.686;2022-08-21T09:34:23;11.35;;;3.30;;
48534;SDS011;34323;52.022;5.686;2022-08-21T09:36:56;12.25;;;2.83;;
48534;SDS011;34323;52.022;5.686;2022-08-21T09:39:27;8.90;;;2.28;;
48534;SDS011;34323;52.022;5.686;2022-08-21T09:41:56;8.10;;;2.72;;
48534;SDS011;34323;52.022;5.686;2022-08-21T09:44:27;12.60;;;3.00;;
48534;SDS011;34323;52.022;5.686;2022-08-21T09:46:55;13.70;;;3.20;;
48534;SDS011;34323;52.022;5.686;2022-08-21T09:49:28;9.10;;;2.58;;
48534;SDS011;34323;52.022;5.686;2022-08-21T09:51:58;9.57;;;2.88;;
48534;SDS011;34323;52.022;5.686;2022-08-21T09:54:37;13.60;;;3.25;;
48534;SDS011;34323;52.022;5.686;2022-08-21T09:59:51;10.80;;;2.97;;
48534;SDS011;34323;52.022;5.686;2022-08-21T10:02:29;10.50;;;2.70;;
48534;SDS011;34323;52.022;5.686;2022-08-21T10:04:58;11.73;;;2.42;;
48534;SDS011;34323;52.022;5.686;2022-08-21T10:07:28;8.38;;;2.47;;
48534;SDS011;34323;52.022;5.686;2022-08-21T10:10:06;8.73;;;2.90;;
48534;SDS011;34323;52.022;5.686;2022-08-21T10:13:03;11.60;;;2.67;;
48534;SDS011;34323;52.022;5.686;2022-08-21T10:15:44;13.40;;;2.45;;
48534;SDS011;34323;52.022;5.686;2022-08-21T10:18:26;7.97;;;2.63;;
48534;SDS011;34323;52.022;5.686;2022-08-21T10:21:08;11.95;;;2.80;;
48534;SDS011;34323;52.022;5.686;2022-08-21T10:23:41;12.57;;;2.25;;
48534;SDS011;34323;52.022;5.686;2022-08-21T10:29:22;10.48;;;2.60;;
48534;SDS011;34323;52.022;5.686;2022-08-21T10:32:21;10.07;;;2.03;;
48534;SDS011;34323;52.022;5.686;2022-08-21T10:44:13;10.43;;;1.73;;
48534;SDS011;34323;52.022;5.686;2022-08-21T10:57:57;9.30;;;2.00;;
48534;SDS011;34323;52.022;5.686;2022-08-21T11:03:21;16.95;;;2.75;;
48534;SDS011;34323;52.022;5.686;2022-08-21T11:06:02;9.30;;;2.47;;
48534;SDS011;34323;52.022;5.686;2022-08-21T11:08:43;14.43;;;2.58;;
48534;SDS011;34323;52.022;5.686;2022-08-21T11:11:50;8.50;;;2.40;;
48534;SDS011;34323;52.022;5.686;2022-08-21T11:17:07;9.20;;;3.10;;
48534;SDS011;34323;52.022;5.686;2022-08-21T11:19:43;10.52;;;2.10;;
48534;SDS011;34323;52.022;5.686;2022-08-21T11:22:19;10.85;;;2.50;;
48534;SDS011;34323;52.022;5.686;2022-08-21T11:24:56;12.32;;;2.63;;
48534;SDS011;34323;52.022;5.686;2022-08-21T11:27:45;9.02;;;2.40;;
48534;SDS011;34323;52.022;5.686;2022-08-21T11:30:27;8.35;;;2.13;;
48534;SDS011;34323;52.022;5.686;2022-08-21T11:35:50;5.38;;;1.77;;
48534;SDS011;34323;52.022;5.686;2022-08-21T11:38:28;9.30;;;2.00;;
48534;SDS011;34323;52.022;5.686;2022-08-21T11:43:40;10.25;;;2.22;;
48534;SDS011;34323;52.022;5.686;2022-08-21T11:46:12;8.38;;;2.38;;
48534;SDS011;34323;52.022;5.686;2022-08-21T11:51:38;8.45;;;2.20;;
48534;SDS011;34323;52.022;5.686;2022-08-21T11:54:28;8.48;;;2.03;;
48534;SDS011;34323;52.022;5.686;2022-08-21T11:57:30;17.05;;;2.67;;
48534;SDS011;34323;52.022;5.686;2022-08-21T12:00:05;8.57;;;2.35;;
48534;SDS011;34323;52.022;5.686;2022-08-21T12:02:37;9.35;;;2.80;;
48534;SDS011;34323;52.022;5.686;2022-08-21T12:07:40;10.25;;;2.90;;
48534;SDS011;34323;52.022;5.686;2022-08-21T12:10:09;6.82;;;1.88;;
48534;SDS011;34323;52.022;5.686;2022-08-21T12:12:43;5.03;;;1.60;;
48534;SDS011;34323;52.022;5.686;2022-08-21T12:17:39;7.18;;;1.60;;
48534;SDS011;34323;52.022;5.686;2022-08-21T12:20:22;7.78;;;1.80;;
48534;SDS011;34323;52.022;5.686;2022-08-21T12:23:33;6.35;;;1.80;;
48534;SDS011;34323;52.022;5.686;2022-08-21T12:25:43;6.68;;;1.95;;
48534;SDS011;34323;52.022;5.686;2022-08-21T12:28:25;6.88;;;1.80;;
48534;SDS011;34323;52.022;5.686;2022-08-21T12:30:52;8.48;;;1.65;;
48534;SDS011;34323;52.022;5.686;2022-08-21T12:33:20;6.97;;;1.80;;
48534;SDS011;34323;52.022;5.686;2022-08-21T12:36:06;4.47;;;1.40;;
48534;SDS011;34323;52.022;5.686;2022-08-21T12:38:43;7.93;;;1.90;;
48534;SDS011;34323;52.022;5.686;2022-08-21T12:41:27;5.80;;;1.75;;
48534;SDS011;34323;52.022;5.686;2022-08-21T12:44:05;6.80;;;1.70;;
48534;SDS011;34323;52.022;5.686;2022-08-21T12:46:51;7.88;;;1.70;;
48534;SDS011;34323;52.022;5.686;2022-08-21T12:49:30;5.78;;;1.67;;
48534;SDS011;34323;52.022;5.686;2022-08-21T12:54:32;6.38;;;1.55;;
48534;SDS011;34323;52.022;5.686;2022-08-21T12:57:04;13.80;;;2.28;;
48534;SDS011;34323;52.022;5.686;2022-08-21T12:59:30;6.38;;;1.70;;
48534;SDS011;34323;52.022;5.686;2022-08-21T13:01:58;9.82;;;2.15;;
48534;SDS011;34323;52.022;5.686;2022-08-21T13:04:34;6.75;;;2.10;;
48534;SDS011;34323;52.022;5.686;2022-08-21T13:07:05;7.30;;;1.90;;
48534;SDS011;34323;52.022;5.686;2022-08-21T13:09:41;7.57;;;1.83;;
48534;SDS011;34323;52.022;5.686;2022-08-21T13:12:12;4.03;;;1.45;;
48534;SDS011;34323;52.022;5.686;2022-08-21T13:14:40;5.85;;;2.42;;
48534;SDS011;34323;52.022;5.686;2022-08-21T13:17:09;9.05;;;1.58;;
48534;SDS011;34323;52.022;5.686;2022-08-21T13:19:36;6.85;;;1.83;;
48534;SDS011;34323;52.022;5.686;2022-08-21T13:22:02;8.55;;;1.80;;
48534;SDS011;34323;52.022;5.686;2022-08-21T13:24:30;4.10;;;1.25;;
48534;SDS011;34323;52.022;5.686;2022-08-21T13:27:00;7.97;;;1.60;;
48534;SDS011;34323;52.022;5.686;2022-08-21T13:29:28;5.75;;;1.40;;
48534;SDS011;34323;52.022;5.686;2022-08-21T13:31:56;6.53;;;1.70;;
48534;SDS011;34323;52.022;5.686;2022-08-21T13:34:25;3.95;;;1.38;;
48534;SDS011;34323;52.022;5.686;2022-08-21T13:36:56;8.65;;;1.80;;
48534;SDS011;34323;52.022;5.686;2022-08-21T13:39:24;7.78;;;1.85;;
48534;SDS011;34323;52.022;5.686;2022-08-21T13:41:51;8.57;;;2.08;;
48534;SDS011;34323;52.022;5.686;2022-08-21T13:44:21;5.25;;;1.52;;
48534;SDS011;34323;52.022;5.686;2022-08-21T13:46:51;5.88;;;1.73;;
48534;SDS011;34323;52.022;5.686;2022-08-21T13:49:19;3.63;;;1.40;;
48534;SDS011;34323;52.022;5.686;2022-08-21T13:51:48;5.65;;;1.50;;
48534;SDS011;34323;52.022;5.686;2022-08-21T13:54:22;5.80;;;1.30;;
48534;SDS011;34323;52.022;5.686;2022-08-21T13:56:51;5.55;;;1.65;;
48534;SDS011;34323;52.022;5.686;2022-08-21T13:59:27;7.07;;;1.90;;
48534;SDS011;34323;52.022;5.686;2022-08-21T14:01:56;8.70;;;2.60;;
48534;SDS011;34323;52.022;5.686;2022-08-21T14:04:35;8.10;;;2.65;;
48534;SDS011;34323;52.022;5.686;2022-08-21T14:07:02;8.30;;;1.70;;
48534;SDS011;34323;52.022;5.686;2022-08-21T14:09:41;2.63;;;1.20;;
48534;SDS011;34323;52.022;5.686;2022-08-21T14:12:13;9.63;;;1.40;;
48534;SDS011;34323;52.022;5.686;2022-08-21T14:14:41;9.10;;;2.17;;
48534;SDS011;34323;52.022;5.686;2022-08-21T14:17:09;8.10;;;2.10;;
48534;SDS011;34323;52.022;5.686;2022-08-21T14:19:49;5.55;;;2.20;;
48534;SDS011;34323;52.022;5.686;2022-08-21T14:22:22;17.40;;;6.88;;
48534;SDS011;34323;52.022;5.686;2022-08-21T14:25:41;8.00;;;5.45;;
48534;SDS011;34323;52.022;5.686;2022-08-21T14:30:30;6.65;;;1.95;;
48534;SDS011;34323;52.022;5.686;2022-08-21T14:32:58;6.10;;;1.60;;
48534;SDS011;34323;52.022;5.686;2022-08-21T14:35:24;5.07;;;1.50;;
48534;SDS011;34323;52.022;5.686;2022-08-21T14:37:50;5.22;;;2.22;;
48534;SDS011;34323;52.022;5.686;2022-08-21T14:40:17;7.82;;;1.98;;
48534;SDS011;34323;52.022;5.686;2022-08-21T14:42:44;5.75;;;1.52;;
48534;SDS011;34323;52.022;5.686;2022-08-21T14:45:16;5.35;;;1.67;;
48534;SDS011;34323;52.022;5.686;2022-08-21T14:47:49;3.97;;;1.38;;
48534;SDS011;34323;52.022;5.686;2022-08-21T14:50:15;7.05;;;1.83;;
48534;SDS011;34323;52.022;5.686;2022-08-21T14:52:40;6.95;;;1.73;;
48534;SDS011;34323;52.022;5.686;2022-08-21T14:55:08;4.43;;;1.38;;
48534;SDS011;34323;52.022;5.686;2022-08-21T14:57:39;6.95;;;1.67;;
48534;SDS011;34323;52.022;5.686;2022-08-21T15:00:05;8.15;;;2.00;;
48534;SDS011;34323;52.022;5.686;2022-08-21T15:02:33;6.07;;;1.80;;
48534;SDS011;34323;52.022;5.686;2022-08-21T15:04:58;6.00;;;1.95;;
48534;SDS011;34323;52.022;5.686;2022-08-21T15:07:24;5.75;;;2.20;;
48534;SDS011;34323;52.022;5.686;2022-08-21T15:09:49;8.75;;;1.50;;
48534;SDS011;34323;52.022;5.686;2022-08-21T15:12:15;7.25;;;1.55;;
48534;SDS011;34323;52.022;5.686;2022-08-21T15:14:41;6.47;;;1.48;;
48534;SDS011;34323;52.022;5.686;2022-08-21T15:17:07;6.90;;;1.73;;
48534;SDS011;34323;52.022;5.686;2022-08-21T15:19:34;6.93;;;2.10;;
48534;SDS011;34323;52.022;5.686;2022-08-21T15:22:00;8.20;;;2.35;;
48534;SDS011;34323;52.022;5.686;2022-08-21T15:24:26;6.93;;;1.90;;
48534;SDS011;34323;52.022;5.686;2022-08-21T15:26:52;7.28;;;1.70;;
48534;SDS011;34323;52.022;5.686;2022-08-21T15:29:19;6.55;;;2.20;;
48534;SDS011;34323;52.022;5.686;2022-08-21T15:31:49;7.28;;;2.35;;
48534;SDS011;34323;52.022;5.686;2022-08-21T15:34:18;6.70;;;1.88;;
48534;SDS011;34323;52.022;5.686;2022-08-21T15:36:44;5.32;;;1.80;;
48534;SDS011;34323;52.022;5.686;2022-08-21T15:39:10;9.48;;;1.80;;
48534;SDS011;34323;52.022;5.686;2022-08-21T15:41:35;8.75;;;3.97;;
48534;SDS011;34323;52.022;5.686;2022-08-21T15:44:01;12.45;;;4.05;;
48534;SDS011;34323;52.022;5.686;2022-08-21T15:46:27;8.32;;;2.80;;
48534;SDS011;34323;52.022;5.686;2022-08-21T15:48:52;7.00;;;2.35;;
48534;SDS011;34323;52.022;5.686;2022-08-21T15:51:18;8.77;;;2.35;;
48534;SDS011;34323;52.022;5.686;2022-08-21T15:53:44;5.63;;;2.10;;
48534;SDS011;34323;52.022;5.686;2022-08-21T15:56:56;9.30;;;2.28;;
48534;SDS011;34323;52.022;5.686;2022-08-21T15:59:00;9.90;;;1.70;;
48534;SDS011;34323;52.022;5.686;2022-08-21T16:01:31;16.98;;;2.00;;